createdAt,value
2022-09-01T00:00:14.325Z,15.54
2022-09-01T00:01:14.305Z,15.54
2022-09-01T00:02:14.321Z,15.54
2022-09-01T00:03:14.286Z,15.56
2022-09-01T00:04:14.322Z,15.56
2022-09-01T00:05:14.263Z,15.56
2022-09-01T00:06:14.251Z,15.54
2022-09-01T00:07:14.236Z,15.54
2022-09-01T00:08:18.472Z,15.54
2022-09-01T00:09:14.216Z,15.54
2022-09-01T00:10:14.222Z,15.54
2022-09-01T00:11:14.194Z,15.54
2022-09-01T00:12:14.175Z,15.54
2022-09-01T00:13:14.173Z,15.49
2022-09-01T00:14:29.900Z,15.48
2022-09-01T00:15:15.155Z,15.48
2022-09-01T00:16:14.237Z,15.48
2022-09-01T00:17:14.128Z,15.48
2022-09-01T00:18:14.113Z,15.49
2022-09-01T00:19:14.093Z,15.49
2022-09-01T00:20:18.221Z,15.51
2022-09-01T00:21:15.084Z,15.49
2022-09-01T00:22:14.062Z,15.51
2022-09-01T00:23:14.055Z,15.49
2022-09-01T00:24:14.043Z,15.49
2022-09-01T00:25:14.032Z,15.48
2022-09-01T00:26:14.022Z,15.48
2022-09-01T00:27:14.002Z,15.48
2022-09-01T00:28:13.992Z,15.48
2022-09-01T00:29:13.981Z,15.46
2022-09-01T00:30:13.969Z,15.46
2022-09-01T00:31:14.010Z,15.43
2022-09-01T00:32:13.953Z,15.42
2022-09-01T00:33:13.932Z,15.43
2022-09-01T00:34:13.925Z,15.42
2022-09-01T00:35:13.911Z,15.45
2022-09-01T00:36:13.912Z,15.45
2022-09-01T00:37:13.892Z,15.43
2022-09-01T00:38:13.881Z,15.43
2022-09-01T00:39:13.871Z,15.45
2022-09-01T00:40:13.949Z,15.43
2022-09-01T00:41:13.842Z,15.45
2022-09-01T00:42:13.841Z,15.46
2022-09-01T00:43:13.821Z,15.46
2022-09-01T00:44:13.810Z,15.45
2022-09-01T00:45:13.801Z,15.43
2022-09-01T00:46:13.822Z,15.45
2022-09-01T00:47:13.781Z,15.43
2022-09-01T00:48:13.771Z,15.45
2022-09-01T00:49:13.759Z,15.42
2022-09-01T00:50:13.741Z,15.42
2022-09-01T00:51:13.730Z,15.39
2022-09-01T00:52:13.731Z,15.42
2022-09-01T00:53:13.711Z,15.41
2022-09-01T00:54:13.701Z,15.39
2022-09-01T00:55:13.689Z,15.39
2022-09-01T00:56:13.680Z,15.39
2022-09-01T00:57:13.676Z,15.38
2022-09-01T00:58:19.764Z,15.36
2022-09-01T00:59:14.639Z,15.35
2022-09-01T01:00:13.630Z,15.33
2022-09-01T01:01:13.657Z,15.31
2022-09-01T01:02:13.692Z,15.30
2022-09-01T01:03:13.606Z,15.30
2022-09-01T01:04:13.579Z,15.27
2022-09-01T01:05:14.402Z,15.27
2022-09-01T01:06:13.558Z,15.26
2022-09-01T01:07:13.559Z,15.24
2022-09-01T01:08:13.548Z,15.26
2022-09-01T01:09:13.527Z,15.26
2022-09-01T01:10:13.508Z,15.26
2022-09-01T01:11:13.498Z,15.28
2022-09-01T01:12:13.487Z,15.26
2022-09-01T01:13:13.495Z,15.30
2022-09-01T01:14:13.469Z,15.30
2022-09-01T01:15:13.462Z,15.33
2022-09-01T01:16:13.473Z,15.31
2022-09-01T01:17:13.436Z,15.31
2022-09-01T01:18:13.439Z,15.30
2022-09-01T01:19:13.446Z,15.31
2022-09-01T01:20:13.422Z,15.31
2022-09-01T01:21:13.387Z,15.30
2022-09-01T01:22:13.407Z,15.30
2022-09-01T01:23:13.398Z,15.31
2022-09-01T01:24:13.356Z,15.33
2022-09-01T01:25:13.346Z,15.35
2022-09-01T01:26:13.327Z,15.35
2022-09-01T01:27:13.327Z,15.38
2022-09-01T01:28:13.317Z,15.35
2022-09-01T01:29:13.296Z,15.35
2022-09-01T01:30:13.284Z,15.36
2022-09-01T01:31:13.381Z,15.35
2022-09-01T01:32:13.265Z,15.33
2022-09-01T01:33:13.323Z,15.38
2022-09-01T01:34:13.235Z,15.38
2022-09-01T01:35:13.233Z,15.38
2022-09-01T01:36:13.219Z,15.39
2022-09-01T01:37:13.204Z,15.36
2022-09-01T01:38:13.194Z,15.36
2022-09-01T01:39:13.195Z,15.36
2022-09-01T01:40:13.212Z,15.36
2022-09-01T01:41:13.163Z,15.39
2022-09-01T01:42:13.144Z,15.41
2022-09-01T01:43:13.154Z,15.39
2022-09-01T01:44:13.124Z,15.38
2022-09-01T01:45:13.114Z,15.35
2022-09-01T01:46:13.207Z,15.36
2022-09-01T01:47:13.096Z,15.35
2022-09-01T01:48:13.083Z,15.31
2022-09-01T01:49:13.087Z,15.31
2022-09-01T01:50:13.052Z,15.30
2022-09-01T01:51:13.043Z,15.31
2022-09-01T01:52:13.033Z,15.31
2022-09-01T01:53:13.058Z,15.28
2022-09-01T01:54:13.002Z,15.30
2022-09-01T01:55:13.014Z,15.31
2022-09-01T01:56:12.993Z,15.30
2022-09-01T01:57:12.973Z,15.30
2022-09-01T01:58:13.007Z,15.30
2022-09-01T01:59:12.963Z,15.33
2022-09-01T02:00:12.945Z,15.35
2022-09-01T02:01:13.026Z,15.36
2022-09-01T02:02:13.009Z,15.35
2022-09-01T02:03:12.911Z,15.36
2022-09-01T02:04:12.900Z,15.35
2022-09-01T02:05:12.891Z,15.35
2022-09-01T02:06:12.881Z,15.33
2022-09-01T02:07:12.867Z,15.35
2022-09-01T02:08:12.882Z,15.33
2022-09-01T02:09:12.851Z,15.35
2022-09-01T02:10:12.863Z,15.31
2022-09-01T02:11:12.819Z,15.36
2022-09-01T02:12:15.621Z,15.35
2022-09-01T02:13:12.791Z,15.36
2022-09-01T02:14:12.800Z,15.35
2022-09-01T02:15:12.780Z,15.38
2022-09-01T02:16:13.027Z,15.38
2022-09-01T02:17:12.753Z,15.36
2022-09-01T02:18:12.740Z,15.36
2022-09-01T02:19:12.720Z,15.33
2022-09-01T02:20:12.720Z,15.33
2022-09-01T02:21:17.670Z,15.28
2022-09-01T02:22:13.690Z,15.28
2022-09-01T02:23:12.680Z,15.28
2022-09-01T02:24:12.671Z,15.28
2022-09-01T02:25:12.668Z,15.27
2022-09-01T02:26:17.255Z,15.28
2022-09-01T02:27:13.629Z,15.27
2022-09-01T02:28:12.670Z,15.27
2022-09-01T02:29:12.639Z,15.26
2022-09-01T02:30:12.599Z,15.26
2022-09-01T02:31:12.646Z,15.24
2022-09-01T02:32:12.578Z,15.23
2022-09-01T02:33:12.568Z,15.23
2022-09-01T02:34:12.558Z,15.23
2022-09-01T02:35:12.559Z,15.21
2022-09-01T02:36:12.538Z,15.21
2022-09-01T02:37:12.517Z,15.20
2022-09-01T02:38:12.553Z,15.17
2022-09-01T02:39:12.497Z,15.17
2022-09-01T02:40:12.545Z,15.13
2022-09-01T02:41:12.477Z,15.11
2022-09-01T02:42:12.476Z,15.12
2022-09-01T02:43:12.449Z,15.13
2022-09-01T02:44:12.436Z,15.12
2022-09-01T02:45:12.438Z,15.13
2022-09-01T02:46:12.507Z,15.13
2022-09-01T02:47:12.409Z,15.12
2022-09-01T02:48:12.442Z,15.11
2022-09-01T02:49:12.387Z,15.11
2022-09-01T02:50:12.377Z,15.09
2022-09-01T02:51:12.365Z,15.09
2022-09-01T02:52:12.355Z,15.09
2022-09-01T02:53:12.336Z,15.06
2022-09-01T02:54:12.326Z,15.08
2022-09-01T02:55:12.318Z,15.09
2022-09-01T02:56:12.325Z,15.12
2022-09-01T02:57:12.296Z,15.11
2022-09-01T02:58:12.338Z,15.09
2022-09-01T02:59:12.273Z,15.12
2022-09-01T03:00:12.256Z,15.11
2022-09-01T03:01:12.314Z,15.11
2022-09-01T03:02:12.245Z,15.13
2022-09-01T03:03:12.225Z,15.15
2022-09-01T03:04:12.215Z,15.15
2022-09-01T03:05:12.243Z,15.15
2022-09-01T03:06:12.197Z,15.17
2022-09-01T03:07:12.194Z,15.15
2022-09-01T03:08:12.191Z,15.17
2022-09-01T03:09:12.160Z,15.17
2022-09-01T03:10:12.143Z,15.20
2022-09-01T03:11:13.146Z,15.19
2022-09-01T03:12:12.146Z,15.20
2022-09-01T03:13:12.114Z,15.21
2022-09-01T03:14:12.094Z,15.21
2022-09-01T03:15:12.297Z,15.23
2022-09-01T03:16:12.112Z,15.24
2022-09-01T03:17:12.071Z,15.21
2022-09-01T03:18:12.084Z,15.23
2022-09-01T03:19:12.054Z,15.23
2022-09-01T03:20:12.023Z,15.24
2022-09-01T03:21:12.024Z,15.26
2022-09-01T03:22:12.013Z,15.26
2022-09-01T03:23:12.021Z,15.27
2022-09-01T03:24:11.982Z,15.27
2022-09-01T03:25:11.972Z,15.27
2022-09-01T03:26:11.962Z,15.27
2022-09-01T03:27:11.959Z,15.28
2022-09-01T03:28:11.941Z,15.28
2022-09-01T03:29:11.941Z,15.27
2022-09-01T03:30:11.912Z,15.27
2022-09-01T03:31:11.910Z,15.26
2022-09-01T03:32:11.945Z,15.24
2022-09-01T03:33:11.881Z,15.24
2022-09-01T03:34:11.883Z,15.23
2022-09-01T03:35:11.861Z,15.20
2022-09-01T03:36:14.895Z,15.19
2022-09-01T03:37:11.840Z,15.17
2022-09-01T03:38:11.875Z,15.15
2022-09-01T03:39:16.487Z,15.15
2022-09-01T03:40:12.838Z,15.13
2022-09-01T03:41:11.800Z,15.12
2022-09-01T03:42:11.780Z,15.09
2022-09-01T03:43:11.769Z,15.09
2022-09-01T03:44:11.770Z,15.09
2022-09-01T03:45:11.751Z,15.08
2022-09-01T03:46:11.758Z,15.06
2022-09-01T03:47:11.729Z,15.03
2022-09-01T03:48:11.723Z,15.05
2022-09-01T03:49:11.717Z,15.05
2022-09-01T03:50:11.699Z,15.05
2022-09-01T03:51:11.680Z,15.06
2022-09-01T03:52:11.669Z,15.06
2022-09-01T03:53:11.662Z,15.08
2022-09-01T03:54:11.658Z,15.05
2022-09-01T03:55:11.646Z,15.06
2022-09-01T03:56:11.618Z,15.02
2022-09-01T03:57:11.616Z,15.05
2022-09-01T03:58:11.648Z,15.02
2022-09-01T03:59:11.588Z,14.99
2022-09-01T04:00:11.599Z,14.98
2022-09-01T04:01:13.889Z,14.98
2022-09-01T04:02:11.634Z,14.95
2022-09-01T04:03:11.546Z,14.95
2022-09-01T04:04:11.528Z,14.98
2022-09-01T04:05:11.525Z,14.95
2022-09-01T04:06:11.528Z,14.95
2022-09-01T04:07:13.460Z,14.94
2022-09-01T04:08:12.562Z,14.94
2022-09-01T04:09:11.490Z,14.95
2022-09-01T04:10:11.474Z,14.94
2022-09-01T04:11:11.477Z,14.95
2022-09-01T04:12:11.437Z,14.98
2022-09-01T04:13:11.428Z,14.99
2022-09-01T04:14:11.416Z,15.01
2022-09-01T04:15:11.407Z,15.02
2022-09-01T04:16:11.414Z,15.01
2022-09-01T04:17:11.406Z,14.99
2022-09-01T04:18:11.377Z,15.02
2022-09-01T04:19:11.356Z,15.01
2022-09-01T04:20:11.345Z,14.99
2022-09-01T04:21:11.336Z,14.95
2022-09-01T04:22:11.325Z,14.91
2022-09-01T04:23:11.327Z,14.91
2022-09-01T04:24:11.306Z,14.91
2022-09-01T04:25:11.294Z,14.88
2022-09-01T04:26:11.313Z,14.90
2022-09-01T04:27:11.294Z,14.88
2022-09-01T04:28:11.255Z,14.90
2022-09-01T04:29:11.246Z,14.88
2022-09-01T04:30:11.235Z,14.91
2022-09-01T04:31:11.273Z,14.91
2022-09-01T04:32:11.214Z,14.90
2022-09-01T04:33:11.214Z,14.91
2022-09-01T04:34:11.185Z,14.91
2022-09-01T04:35:11.194Z,14.90
2022-09-01T04:36:11.174Z,14.90
2022-09-01T04:37:11.153Z,14.86
2022-09-01T04:38:11.154Z,14.84
2022-09-01T04:39:11.916Z,14.81
2022-09-01T04:40:11.169Z,14.84
2022-09-01T04:41:11.114Z,14.83
2022-09-01T04:42:11.103Z,14.84
2022-09-01T04:43:11.105Z,14.83
2022-09-01T04:44:11.082Z,14.81
2022-09-01T04:45:11.418Z,14.81
2022-09-01T04:46:11.095Z,14.80
2022-09-01T04:47:11.062Z,14.78
2022-09-01T04:48:11.043Z,14.75
2022-09-01T04:49:13.025Z,14.75
2022-09-01T04:50:11.004Z,14.74
2022-09-01T04:51:11.006Z,14.75
2022-09-01T04:52:10.981Z,14.72
2022-09-01T04:53:11.001Z,14.71
2022-09-01T04:54:10.962Z,14.72
2022-09-01T04:55:10.991Z,14.72
2022-09-01T04:56:10.951Z,14.71
2022-09-01T04:57:10.932Z,14.69
2022-09-01T04:58:10.912Z,14.71
2022-09-01T04:59:10.920Z,14.71
2022-09-01T05:00:10.891Z,14.71
2022-09-01T05:01:10.967Z,14.71
2022-09-01T05:02:10.931Z,14.69
2022-09-01T05:03:10.872Z,14.71
2022-09-01T05:04:10.849Z,14.71
2022-09-01T05:05:10.841Z,14.68
2022-09-01T05:06:10.841Z,14.68
2022-09-01T05:07:10.810Z,14.67
2022-09-01T05:08:10.838Z,14.67
2022-09-01T05:09:10.790Z,14.67
2022-09-01T05:10:10.782Z,14.67
2022-09-01T05:11:10.769Z,14.67
2022-09-01T05:12:10.762Z,14.67
2022-09-01T05:13:10.769Z,14.68
2022-09-01T05:14:10.739Z,14.69
2022-09-01T05:15:10.720Z,14.71
2022-09-01T05:16:10.768Z,14.71
2022-09-01T05:17:10.699Z,14.71
2022-09-01T05:18:10.690Z,14.69
2022-09-01T05:19:10.689Z,14.72
2022-09-01T05:20:10.671Z,14.72
2022-09-01T05:21:10.686Z,14.74
2022-09-01T05:22:10.646Z,14.72
2022-09-01T05:23:10.639Z,14.75
2022-09-01T05:24:10.638Z,14.78
2022-09-01T05:25:10.608Z,14.80
2022-09-01T05:26:10.607Z,14.83
2022-09-01T05:27:10.592Z,14.83
2022-09-01T05:28:10.578Z,14.86
2022-09-01T05:29:10.757Z,14.88
2022-09-01T05:30:10.568Z,14.87
2022-09-01T05:31:10.608Z,14.90
2022-09-01T05:32:10.556Z,14.93
2022-09-01T05:33:10.519Z,14.91
2022-09-01T05:34:10.728Z,14.88
2022-09-01T05:35:10.496Z,14.88
2022-09-01T05:36:10.498Z,14.88
2022-09-01T05:37:10.476Z,14.88
2022-09-01T05:38:10.467Z,14.91
2022-09-01T05:39:10.459Z,14.91
2022-09-01T05:40:12.284Z,14.90
2022-09-01T05:41:10.436Z,14.86
2022-09-01T05:42:10.419Z,14.87
2022-09-01T05:43:10.405Z,14.84
2022-09-01T05:44:10.396Z,14.83
2022-09-01T05:45:10.386Z,14.84
2022-09-01T05:46:10.385Z,14.86
2022-09-01T05:47:10.366Z,14.87
2022-09-01T05:48:11.353Z,14.90
2022-09-01T05:49:10.336Z,14.95
2022-09-01T05:50:14.266Z,15.01
2022-09-01T05:51:22.632Z,15.05
2022-09-01T05:52:11.315Z,15.05
2022-09-01T05:53:11.009Z,15.08
2022-09-01T05:54:10.285Z,15.09
2022-09-01T05:55:10.275Z,15.09
2022-09-01T05:56:10.274Z,15.11
2022-09-01T05:57:32.745Z,15.11
2022-09-01T05:58:11.246Z,15.09
2022-09-01T05:59:26.368Z,15.08
2022-09-01T06:00:11.345Z,15.08
2022-09-01T06:01:10.242Z,15.05
2022-09-01T06:02:10.306Z,15.02
2022-09-01T06:03:10.357Z,14.99
2022-09-01T06:04:10.173Z,14.98
2022-09-01T06:05:10.174Z,14.95
2022-09-01T06:06:10.185Z,14.95
2022-09-01T06:07:12.768Z,14.95
2022-09-01T06:08:11.134Z,14.94
2022-09-01T06:09:10.114Z,14.98
2022-09-01T06:10:10.107Z,14.95
2022-09-01T06:11:10.113Z,14.98
2022-09-01T06:12:10.093Z,14.99
2022-09-01T06:13:10.656Z,14.95
2022-09-01T06:14:10.053Z,14.98
2022-09-01T06:15:10.049Z,14.95
2022-09-01T06:16:10.125Z,14.98
2022-09-01T06:17:10.023Z,14.94
2022-09-01T06:18:10.041Z,14.98
2022-09-01T06:19:09.993Z,14.94
2022-09-01T06:20:09.993Z,14.93
2022-09-01T06:21:09.983Z,14.93
2022-09-01T06:22:09.972Z,14.94
2022-09-01T06:23:09.951Z,14.94
2022-09-01T06:24:10.002Z,14.91
2022-09-01T06:25:09.961Z,14.91
2022-09-01T06:26:09.943Z,14.90
2022-09-01T06:27:09.927Z,14.90
2022-09-01T06:28:09.899Z,14.90
2022-09-01T06:29:09.883Z,14.94
2022-09-01T06:30:09.891Z,14.94
2022-09-01T06:31:09.881Z,14.98
2022-09-01T06:32:09.880Z,14.94
2022-09-01T06:33:09.838Z,14.95
2022-09-01T06:34:09.830Z,14.93
2022-09-01T06:35:09.820Z,14.94
2022-09-01T06:36:09.829Z,14.94
2022-09-01T06:37:09.807Z,14.93
2022-09-01T06:38:09.789Z,14.93
2022-09-01T06:39:09.772Z,14.95
2022-09-01T06:40:09.839Z,14.98
2022-09-01T06:41:09.760Z,14.98
2022-09-01T06:42:09.739Z,14.94
2022-09-01T06:43:09.728Z,14.94
2022-09-01T06:44:14.347Z,14.94
2022-09-01T06:45:09.699Z,14.95
2022-09-01T06:46:09.764Z,14.95
2022-09-01T06:47:09.701Z,14.98
2022-09-01T06:48:09.688Z,14.98
2022-09-01T06:49:09.660Z,14.99
2022-09-01T06:50:09.648Z,14.99
2022-09-01T06:51:19.090Z,14.99
2022-09-01T06:52:10.620Z,15.03
2022-09-01T06:54:14.024Z,15.01
2022-09-01T06:55:09.596Z,15.02
2022-09-01T06:56:09.629Z,15.02
2022-09-01T06:58:12.986Z,15.08
2022-09-01T06:59:09.558Z,15.08
2022-09-01T07:00:09.539Z,15.12
2022-09-01T07:01:09.528Z,15.12
2022-09-01T07:02:13.926Z,15.15
2022-09-01T07:03:10.506Z,15.20
2022-09-01T07:04:12.855Z,15.21
2022-09-01T07:05:59.731Z,15.21
2022-09-01T07:06:58.757Z,15.21
2022-09-01T07:08:10.457Z,15.27
2022-09-01T07:09:38.557Z,15.28
2022-09-01T07:10:26.185Z,15.26
2022-09-01T07:12:25.770Z,15.26
2022-09-01T07:13:10.409Z,15.26
2022-09-01T07:14:16.427Z,15.30
2022-09-01T07:17:25.593Z,15.36
2022-09-01T07:18:10.329Z,15.38
2022-09-01T07:19:09.326Z,15.39
2022-09-01T07:20:25.376Z,15.39
2022-09-01T07:21:38.747Z,15.41
2022-09-01T07:22:35.296Z,15.41
2022-09-01T07:23:10.274Z,15.43
2022-09-01T07:24:11.082Z,15.42
2022-09-01T07:25:11.939Z,15.39
2022-09-01T07:26:09.301Z,15.38
2022-09-01T07:27:09.452Z,15.39
2022-09-01T07:28:09.216Z,15.39
2022-09-01T07:29:09.224Z,15.38
2022-09-01T07:30:09.204Z,15.39
2022-09-01T07:35:11.902Z,15.48
2022-09-01T07:43:10.057Z,15.61
2022-09-01T07:44:09.022Z,15.63
2022-09-01T07:48:10.040Z,15.72
2022-09-01T07:50:37.073Z,15.75
2022-09-01T07:52:09.941Z,15.75
2022-09-01T07:53:08.963Z,15.78
2022-09-01T07:54:08.912Z,15.79
2022-09-01T07:55:08.911Z,15.82
2022-09-01T07:56:08.900Z,15.84
2022-09-01T07:57:08.882Z,15.89
2022-09-01T07:58:08.884Z,15.92
2022-09-01T07:59:08.871Z,15.93
2022-09-01T08:00:08.855Z,15.96
2022-09-01T08:01:08.844Z,15.99
2022-09-01T08:02:08.880Z,15.99
2022-09-01T08:03:08.944Z,16.00
2022-09-01T08:04:08.809Z,16.06
2022-09-01T08:05:08.791Z,16.09
2022-09-01T08:06:08.798Z,16.11
2022-09-01T08:07:08.772Z,16.06
2022-09-01T08:08:28.659Z,16.09
2022-09-01T08:09:11.872Z,16.09
2022-09-01T08:10:09.758Z,16.11
2022-09-01T08:11:08.725Z,16.14
2022-09-01T08:12:08.714Z,16.16
2022-09-01T08:13:15.220Z,16.18
2022-09-01T08:14:09.690Z,16.22
2022-09-01T08:16:17.023Z,16.27
2022-09-01T08:17:18.100Z,16.26
2022-09-01T08:18:09.692Z,16.30
2022-09-01T08:19:16.658Z,16.30
2022-09-01T08:20:09.637Z,16.34
2022-09-01T08:21:08.630Z,16.31
2022-09-01T08:22:08.610Z,16.31
2022-09-01T08:23:08.583Z,16.34
2022-09-01T08:24:08.579Z,16.37
2022-09-01T08:25:08.559Z,16.42
2022-09-01T08:26:08.556Z,16.45
2022-09-01T08:27:08.551Z,16.50
2022-09-01T08:28:08.543Z,16.52
2022-09-01T08:29:08.538Z,16.53
2022-09-01T08:30:08.509Z,16.55
2022-09-01T08:31:11.166Z,16.56
2022-09-01T08:32:08.488Z,16.62
2022-09-01T08:33:11.533Z,16.67
2022-09-01T08:34:08.457Z,16.74
2022-09-01T08:35:08.448Z,16.77
2022-09-01T08:36:08.438Z,16.80
2022-09-01T08:37:08.439Z,16.86
2022-09-01T08:38:08.447Z,16.88
2022-09-01T08:39:08.399Z,16.86
2022-09-01T08:40:08.429Z,16.89
2022-09-01T08:41:08.387Z,16.95
2022-09-01T08:42:08.754Z,16.99
2022-09-01T08:43:11.940Z,17.00
2022-09-01T08:44:09.368Z,17.08
2022-09-01T08:45:08.329Z,17.18
2022-09-01T08:46:08.363Z,17.17
2022-09-01T08:47:08.308Z,17.30
2022-09-01T08:48:57.340Z,17.48
2022-09-01T08:49:24.809Z,17.63
2022-09-01T08:50:09.289Z,17.67
2022-09-01T08:51:14.113Z,17.78
2022-09-01T08:52:09.255Z,17.85
2022-09-01T08:53:09.555Z,17.97
2022-09-01T08:54:08.236Z,18.03
2022-09-01T08:55:08.235Z,18.04
2022-09-01T08:56:08.592Z,18.10
2022-09-01T08:57:08.198Z,18.17
2022-09-01T08:58:08.195Z,18.18
2022-09-01T08:59:08.185Z,18.22
2022-09-01T09:00:08.173Z,18.27
2022-09-01T09:01:08.350Z,18.31
2022-09-01T09:02:08.165Z,18.34
2022-09-01T09:03:18.460Z,18.31
2022-09-01T09:04:09.156Z,18.33
2022-09-01T09:05:15.803Z,18.36
2022-09-01T09:06:09.116Z,18.34
2022-09-01T09:07:08.137Z,18.28
2022-09-01T09:08:08.199Z,18.39
2022-09-01T09:09:08.065Z,18.37
2022-09-01T09:10:08.066Z,18.34
2022-09-01T09:11:08.046Z,18.43
2022-09-01T09:12:08.692Z,18.37
2022-09-01T09:13:08.016Z,18.37
2022-09-01T09:14:08.014Z,18.36
2022-09-01T09:15:08.005Z,18.34
2022-09-01T09:16:08.604Z,18.31
2022-09-01T09:17:07.981Z,18.25
2022-09-01T09:18:20.219Z,18.22
2022-09-01T09:19:08.984Z,18.22
2022-09-01T09:20:09.186Z,18.18
2022-09-01T09:21:07.934Z,18.13
2022-09-01T09:22:07.935Z,18.13
2022-09-01T09:23:08.068Z,18.15
2022-09-01T09:24:07.895Z,18.15
2022-09-01T09:25:08.295Z,18.18
2022-09-01T09:26:08.326Z,18.21
2022-09-01T09:27:09.723Z,18.22
2022-09-01T09:28:07.874Z,18.22
2022-09-01T09:29:07.859Z,18.25
2022-09-01T09:30:11.224Z,18.24
2022-09-01T09:31:08.310Z,18.19
2022-09-01T09:32:22.479Z,18.21
2022-09-01T09:33:44.190Z,18.21
2022-09-01T09:34:08.787Z,18.24
2022-09-01T09:35:07.771Z,18.27
2022-09-01T09:36:07.774Z,18.29
2022-09-01T09:37:07.745Z,18.34
2022-09-01T09:38:07.740Z,18.40
2022-09-01T09:39:07.732Z,18.43
2022-09-01T09:40:09.893Z,18.49
2022-09-01T09:41:16.579Z,18.52
2022-09-01T09:42:08.704Z,18.50
2022-09-01T09:43:07.704Z,18.54
2022-09-01T09:44:11.049Z,18.52
2022-09-01T09:45:08.173Z,18.54
2022-09-01T09:46:23.351Z,18.54
2022-09-01T09:47:27.280Z,18.52
2022-09-01T09:48:10.826Z,18.52
2022-09-01T09:49:07.612Z,18.55
2022-09-01T09:50:07.640Z,18.54
2022-09-01T09:51:07.660Z,18.54
2022-09-01T09:52:07.590Z,18.47
2022-09-01T09:53:07.574Z,18.44
2022-09-01T09:54:07.581Z,18.42
2022-09-01T09:55:07.549Z,18.42
2022-09-01T09:56:07.562Z,18.43
2022-09-01T09:57:07.525Z,18.43
2022-09-01T09:58:07.512Z,18.43
2022-09-01T09:59:07.519Z,18.40
2022-09-01T10:00:07.491Z,18.42
2022-09-01T10:01:07.519Z,18.46
2022-09-01T10:02:07.483Z,18.43
2022-09-01T10:03:08.697Z,18.44
2022-09-01T10:04:07.544Z,18.46
2022-09-01T10:05:07.432Z,18.47
2022-09-01T10:06:07.421Z,18.50
2022-09-01T10:07:07.423Z,18.52
2022-09-01T10:08:07.401Z,18.58
2022-09-01T10:09:07.389Z,18.62
2022-09-01T10:10:07.370Z,18.64
2022-09-01T10:11:08.082Z,18.68
2022-09-01T10:12:07.361Z,18.74
2022-09-01T10:13:07.340Z,18.72
2022-09-01T10:14:07.331Z,18.64
2022-09-01T10:15:12.525Z,18.70
2022-09-01T10:16:09.199Z,18.70
2022-09-01T10:17:07.357Z,18.76
2022-09-01T10:18:20.632Z,18.76
2022-09-01T10:19:12.541Z,18.77
2022-09-01T10:20:07.259Z,18.79
2022-09-01T10:21:07.248Z,18.77
2022-09-01T10:22:07.238Z,18.83
2022-09-01T10:23:14.920Z,18.90
2022-09-01T10:24:27.341Z,18.94
2022-09-01T10:25:10.352Z,18.97
2022-09-01T10:26:09.479Z,19.01
2022-09-01T10:27:13.849Z,19.05
2022-09-01T10:28:08.191Z,19.06
2022-09-01T10:29:07.188Z,19.10
2022-09-01T10:30:18.948Z,19.13
2022-09-01T10:31:09.165Z,19.14
2022-09-01T10:32:30.731Z,19.17
2022-09-01T10:33:19.191Z,19.17
2022-09-01T10:34:08.108Z,19.20
2022-09-01T10:35:07.089Z,19.23
2022-09-01T10:36:07.924Z,19.25
2022-09-01T10:37:11.405Z,19.31
2022-09-01T10:38:11.939Z,19.35
2022-09-01T10:39:09.089Z,19.40
2022-09-01T10:40:07.071Z,19.42
2022-09-01T10:41:07.206Z,19.43
2022-09-01T10:42:07.008Z,19.47
2022-09-01T10:43:12.393Z,19.53
2022-09-01T10:44:07.999Z,19.55
2022-09-01T10:45:06.969Z,19.58
2022-09-01T10:46:08.983Z,19.61
2022-09-01T10:47:08.118Z,19.68
2022-09-01T10:48:06.940Z,19.73
2022-09-01T10:49:07.402Z,19.73
2022-09-01T10:50:10.103Z,19.76
2022-09-01T10:51:06.907Z,19.83
2022-09-01T10:52:12.858Z,19.83
2022-09-01T10:53:07.878Z,19.84
2022-09-01T10:54:06.991Z,19.93
2022-09-01T10:55:06.896Z,19.91
2022-09-01T10:56:23.990Z,19.88
2022-09-01T10:57:08.914Z,19.90
2022-09-01T10:59:30.076Z,19.91
2022-09-01T11:00:34.906Z,20.20
2022-09-01T11:01:11.368Z,20.28
2022-09-01T11:04:07.817Z,20.61
2022-09-01T11:05:06.800Z,20.62
2022-09-01T11:06:13.854Z,20.72
2022-09-01T11:07:14.899Z,20.87
2022-09-01T11:08:15.599Z,20.99
2022-09-01T11:09:07.697Z,21.13
2022-09-01T11:10:11.242Z,21.30
2022-09-01T11:11:07.677Z,21.35
2022-09-01T11:12:06.713Z,21.24
2022-09-01T11:13:06.656Z,21.30
2022-09-01T11:14:06.656Z,21.35
2022-09-01T11:15:07.009Z,21.41
2022-09-01T11:16:06.641Z,21.45
2022-09-01T11:17:06.685Z,21.42
2022-09-01T11:18:06.597Z,21.45
2022-09-01T11:19:06.585Z,21.48
2022-09-01T11:20:06.579Z,21.48
2022-09-01T11:21:06.596Z,21.50
2022-09-01T11:22:06.556Z,21.48
2022-09-01T11:23:06.536Z,21.53
2022-09-01T11:24:06.535Z,21.56
2022-09-01T11:25:12.421Z,21.63
2022-09-01T11:26:22.931Z,21.60
2022-09-01T11:27:07.495Z,21.67
2022-09-01T11:28:06.503Z,21.75
2022-09-01T11:29:06.517Z,21.81
2022-09-01T11:30:06.514Z,21.88
2022-09-01T11:31:06.509Z,21.94
2022-09-01T11:32:06.475Z,22.02
2022-09-01T11:33:06.427Z,21.83
2022-09-01T11:34:06.423Z,21.92
2022-09-01T11:35:06.406Z,21.92
2022-09-01T11:36:06.403Z,22.07
2022-09-01T11:37:06.394Z,22.16
2022-09-01T11:38:06.376Z,22.25
2022-09-01T11:39:06.365Z,22.28
2022-09-01T11:40:06.449Z,22.27
2022-09-01T11:41:06.334Z,22.29
2022-09-01T11:42:06.344Z,22.06
2022-09-01T11:43:06.314Z,21.94
2022-09-01T11:44:07.308Z,21.72
2022-09-01T11:45:06.304Z,21.54
2022-09-01T11:46:06.323Z,21.38
2022-09-01T11:47:08.580Z,21.41
2022-09-01T11:48:07.273Z,21.38
2022-09-01T11:49:06.244Z,21.38
2022-09-01T11:50:06.289Z,21.38
2022-09-01T11:51:06.223Z,21.11
2022-09-01T11:52:06.226Z,21.19
2022-09-01T11:53:06.203Z,21.14
2022-09-01T11:54:06.193Z,20.93
2022-09-01T11:55:06.184Z,21.04
2022-09-01T11:56:06.172Z,21.08
2022-09-01T11:57:06.164Z,21.14
2022-09-01T11:58:06.156Z,21.14
2022-09-01T11:59:06.137Z,21.19
2022-09-01T12:00:06.133Z,21.23
2022-09-01T12:01:06.162Z,21.34
2022-09-01T12:02:06.213Z,21.29
2022-09-01T12:03:06.228Z,21.11
2022-09-01T12:04:06.085Z,20.99
2022-09-01T12:05:06.079Z,21.08
2022-09-01T12:06:06.085Z,21.11
2022-09-01T12:07:06.045Z,21.19
2022-09-01T12:08:06.033Z,21.20
2022-09-01T12:09:06.033Z,21.21
2022-09-01T12:10:06.020Z,21.21
2022-09-01T12:11:06.003Z,21.26
2022-09-01T12:12:05.998Z,21.24
2022-09-01T12:13:06.013Z,21.09
2022-09-01T12:14:10.491Z,21.17
2022-09-01T12:15:07.120Z,21.02
2022-09-01T12:16:21.214Z,20.98
2022-09-01T12:17:06.985Z,20.98
2022-09-01T12:18:05.931Z,20.84
2022-09-01T12:19:05.923Z,20.76
2022-09-01T12:20:05.912Z,20.77
2022-09-01T12:21:05.883Z,20.83
2022-09-01T12:22:05.922Z,20.89
2022-09-01T12:23:05.876Z,20.91
2022-09-01T12:24:05.875Z,20.93
2022-09-01T12:25:05.853Z,20.96
2022-09-01T12:26:05.833Z,21.01
2022-09-01T12:27:05.821Z,21.05
2022-09-01T12:28:05.824Z,21.06
2022-09-01T12:29:05.804Z,21.11
2022-09-01T12:30:05.792Z,21.13
2022-09-01T12:31:07.561Z,21.16
2022-09-01T12:32:05.887Z,21.19
2022-09-01T12:34:06.759Z,21.17
2022-09-01T12:35:11.262Z,21.20
2022-09-01T12:36:06.732Z,21.21
2022-09-01T12:37:05.720Z,21.24
2022-09-01T12:38:09.447Z,21.19
2022-09-01T12:39:05.684Z,21.23
2022-09-01T12:40:05.681Z,21.24
2022-09-01T12:41:05.660Z,21.17
2022-09-01T12:42:05.744Z,21.20
2022-09-01T12:43:05.647Z,21.14
2022-09-01T12:44:05.717Z,21.23
2022-09-01T12:45:05.631Z,21.24
2022-09-01T12:46:05.630Z,21.32
2022-09-01T12:47:05.590Z,21.36
2022-09-01T12:48:05.600Z,21.34
2022-09-01T12:49:05.616Z,21.36
2022-09-01T12:50:05.644Z,21.27
2022-09-01T12:51:05.565Z,21.20
2022-09-01T12:52:05.542Z,21.16
2022-09-01T12:53:05.862Z,21.09
2022-09-01T12:54:05.522Z,21.05
2022-09-01T12:55:05.503Z,20.98
2022-09-01T12:56:05.499Z,20.93
2022-09-01T12:57:05.503Z,20.90
2022-09-01T12:58:05.470Z,20.86
2022-09-01T12:59:05.470Z,20.77
2022-09-01T13:00:05.440Z,20.74
2022-09-01T13:01:05.782Z,20.71
2022-09-01T13:02:05.576Z,20.71
2022-09-01T13:03:08.075Z,20.74
2022-09-01T13:04:05.401Z,20.72
2022-09-01T13:05:05.390Z,20.79
2022-09-01T13:06:05.381Z,20.83
2022-09-01T13:07:05.382Z,20.79
2022-09-01T13:08:05.361Z,20.74
2022-09-01T13:09:05.340Z,20.71
2022-09-01T13:10:05.576Z,20.74
2022-09-01T13:11:05.320Z,20.77
2022-09-01T13:12:06.705Z,20.81
2022-09-01T13:13:05.299Z,20.84
2022-09-01T13:14:05.291Z,20.89
2022-09-01T13:15:05.333Z,20.90
2022-09-01T13:16:05.380Z,20.91
2022-09-01T13:17:05.260Z,20.99
2022-09-01T13:18:05.269Z,21.04
2022-09-01T13:19:12.439Z,21.05